Brandon Municipal Airport
CYBR : now visible

Airfield :











YOU CAN JOIN US ON...

 
LOGIN :

Register | Disclaimer

   EN    FR    IT 

 









Legend :    VFR   Marginal VFR   IFR   Intensive IFR   Very Intensive IFR
Visi :
Ceiling :
>= 8 km
>= 3000ft
5 to 8 km
1000 to 3000 ft
1500m to 5 km
500 to 1000 ft
800 to 1500m
200 to 500 ft
< 800m
< 200 ft
Symbols :   Thunderstorms  Fog  Heavy snow  Heavy precipitations  Wind > 20 kt






- Airport Elevation : 1343 ft
- IATA code : YBR


CYBR - Brandon Municipal

CURRENT METAR :
  • 280700Z 07015G22KT 8SM RA OVC056 13/12 A2962 RMK SC8 BR PRESFR SLP036 DENSITY ALT 1800FT

EXPIRED METARs :
  • 280643Z 07016G22KT 8SM RA OVC058 13/13 A2964 RMK SC8 BR SLP042 DENSITY ALT 1800FT
  • 280600Z 09009KT 12SM -RA OVC060 14/13 A2966 RMK SC8 SLP049 DENSITY ALT 1900FT
  • 280500Z 07007KT 12SM -RA SCT062 OVC080 14/14 A2967 RMK SC3 AC5 SLP054 DENSITY ALT 1900FT

TAF AMD TAF CYBR
Valid from the 28 at 07:00 until the 28 at 18:00 UTC


280702Z 2807/2818 07012G22KT P6SM -RA SCT020 OVC060
TEMPO 2807/2809 5SM SHRA BR OVC020
FM280900 08006KT P6SM SCT006 BKN050
FM281200 08006KT P6SM BKN015
TEMPO 2812/2818 P6SM -SHRA
BECMG 2813/2815 30010KT RMK NXT FCST BY 281200Z
CZWG FIR / North America



MET'MAP, your aeronautical weather chart ! - Copyright ORBIFLY December 2007 - Disclaimer

ORBIFLY MET'MAP TEAM :

Programming & Development : Alexandra Zaïnal
Original concept : Baudouin d'Aumeries
Technical & hardware support : Manuel Goepfert
Assistance : Marc-Olivier Méhu

Contact : metmap@orbifly.com




SOURCES & CREDITS :

   NOAA       Earth
Advisory